createdAt,value
2023-02-13T00:01:54.335Z,53.18
2023-02-13T00:04:20.891Z,52.77
2023-02-13T00:06:50.525Z,53.35
2023-02-13T00:09:17.260Z,53.30
2023-02-13T00:11:43.872Z,53.02
2023-02-13T00:14:10.658Z,52.71
2023-02-13T00:16:37.156Z,53.07
2023-02-13T00:19:04.064Z,52.92
2023-02-13T00:21:30.757Z,53.62
2023-02-13T00:23:57.300Z,53.08
2023-02-13T00:26:24.708Z,52.80
2023-02-13T00:28:51.363Z,52.93
2023-02-13T00:31:20.193Z,52.73
2023-02-13T00:33:47.252Z,52.59
2023-02-13T00:36:20.286Z,52.83
2023-02-13T00:38:47.389Z,52.73
2023-02-13T00:41:14.413Z,52.73
2023-02-13T00:43:40.868Z,52.71
2023-02-13T00:46:07.582Z,53.05
2023-02-13T00:48:35.133Z,52.76
2023-02-13T00:51:02.009Z,52.95
2023-02-13T00:53:28.603Z,52.79
2023-02-13T00:55:55.186Z,53.03
2023-02-13T00:58:22.169Z,52.90
2023-02-13T01:00:49.142Z,52.83
2023-02-13T01:03:16.643Z,52.64
2023-02-13T01:05:44.425Z,52.79
2023-02-13T01:08:12.202Z,52.68
2023-02-13T01:10:39.578Z,52.71
2023-02-13T01:13:06.484Z,52.93
2023-02-13T01:15:33.670Z,52.77
2023-02-13T01:18:00.957Z,52.84
2023-02-13T01:20:28.850Z,52.96
2023-02-13T01:22:56.050Z,52.88
2023-02-13T01:25:23.201Z,52.90
2023-02-13T01:27:50.011Z,52.83
2023-02-13T01:30:18.174Z,52.60
2023-02-13T01:32:46.211Z,52.79
2023-02-13T01:35:13.879Z,52.71
2023-02-13T01:37:40.975Z,53.13
2023-02-13T01:40:10.183Z,52.97
2023-02-13T01:42:36.938Z,52.93
2023-02-13T01:45:21.224Z,52.95
2023-02-13T01:47:51.175Z,52.73
2023-02-13T01:50:25.667Z,53.93
2023-02-13T01:53:29.201Z,53.97
2023-02-13T01:55:59.925Z,53.25
2023-02-13T01:58:31.263Z,53.37
2023-02-13T02:00:59.054Z,52.94
2023-02-13T02:03:39.280Z,52.78
2023-02-13T02:06:07.920Z,52.83
2023-02-13T02:08:34.717Z,52.94
2023-02-13T02:11:10.389Z,53.21
2023-02-13T02:13:37.599Z,53.06
2023-02-13T02:16:04.158Z,53.04
2023-02-13T02:18:30.649Z,52.58
2023-02-13T02:21:00.175Z,52.96
2023-02-13T02:23:56.053Z,53.50
2023-02-13T02:26:45.596Z,54.01
2023-02-13T02:29:23.607Z,54.47
2023-02-13T02:32:15.141Z,54.80
2023-02-13T02:35:29.459Z,54.45
2023-02-13T02:37:55.908Z,55.38
2023-02-13T02:40:40.574Z,56.05
2023-02-13T02:43:12.928Z,55.21
2023-02-13T02:45:50.859Z,54.62
2023-02-13T02:48:40.866Z,55.18
2023-02-13T02:51:14.216Z,55.84
2023-02-13T02:54:30.757Z,55.82
2023-02-13T02:57:03.402Z,56.48
2023-02-13T02:59:48.561Z,56.15
2023-02-13T03:02:34.740Z,57.48
2023-02-13T03:05:21.460Z,56.32
2023-02-13T03:07:47.998Z,56.65
2023-02-13T03:10:41.234Z,56.80
2023-02-13T03:13:21.648Z,58.21
2023-02-13T03:16:11.968Z,58.92
2023-02-13T03:18:59.521Z,58.88
2023-02-13T03:22:14.076Z,57.49
2023-02-13T03:24:50.955Z,56.32
2023-02-13T03:27:54.425Z,56.92
2023-02-13T03:30:56.309Z,57.13
2023-02-13T03:33:42.244Z,56.85
2023-02-13T03:36:48.313Z,57.70
2023-02-13T03:39:27.122Z,57.79
2023-02-13T03:42:38.468Z,57.20
2023-02-13T03:45:30.994Z,56.26
2023-02-13T03:47:59.206Z,56.47
2023-02-13T03:50:26.375Z,57.34
2023-02-13T03:53:06.978Z,57.19
2023-02-13T03:55:59.051Z,57.08
2023-02-13T03:58:55.056Z,56.59
2023-02-13T04:01:26.363Z,55.78
2023-02-13T04:03:59.387Z,56.80
2023-02-13T04:06:33.274Z,57.10
2023-02-13T04:08:59.831Z,57.23
2023-02-13T04:11:38.832Z,57.03
2023-02-13T04:14:16.830Z,56.60
2023-02-13T04:16:46.589Z,58.35
2023-02-13T04:19:13.564Z,57.44
2023-02-13T04:21:40.640Z,56.84
2023-02-13T04:24:07.722Z,57.38
2023-02-13T04:26:40.330Z,58.55
2023-02-13T04:29:06.876Z,57.71
2023-02-13T04:31:33.688Z,58.20
2023-02-13T04:34:00.262Z,58.86
2023-02-13T04:36:27.008Z,60.65
2023-02-13T04:38:53.608Z,60.57
2023-02-13T04:41:20.215Z,60.46
2023-02-13T04:43:46.714Z,60.99
2023-02-13T04:46:13.531Z,58.52
2023-02-13T04:48:40.071Z,59.24
2023-02-13T04:51:06.562Z,58.00
2023-02-13T04:53:33.125Z,56.98
2023-02-13T04:55:59.580Z,58.28
2023-02-13T04:58:26.390Z,60.36
2023-02-13T05:00:52.868Z,59.15
2023-02-13T05:03:19.453Z,60.94
2023-02-13T05:05:45.981Z,61.30
2023-02-13T05:08:12.571Z,60.91
2023-02-13T05:10:39.132Z,59.95
2023-02-13T05:13:05.714Z,59.68
2023-02-13T05:15:32.488Z,60.34
2023-02-13T05:17:59.449Z,58.82
2023-02-13T05:20:25.932Z,59.08
2023-02-13T05:23:12.622Z,58.61
2023-02-13T05:25:41.258Z,58.77
2023-02-13T05:28:27.011Z,58.37
2023-02-13T05:30:53.610Z,60.60
2023-02-13T05:33:20.184Z,59.68
2023-02-13T05:35:46.971Z,58.37
2023-02-13T05:38:13.457Z,58.32
2023-02-13T05:40:39.954Z,57.53
2023-02-13T05:43:06.589Z,59.60
2023-02-13T05:45:33.064Z,61.30
2023-02-13T05:47:59.746Z,60.43
2023-02-13T05:50:26.249Z,59.57
2023-02-13T05:52:52.753Z,60.14
2023-02-13T05:55:19.232Z,59.55
2023-02-13T05:57:45.709Z,58.06
2023-02-13T06:00:12.784Z,56.95
2023-02-13T06:02:39.546Z,56.58
2023-02-13T06:05:06.282Z,55.88
2023-02-13T06:07:33.223Z,57.28
2023-02-13T06:09:59.736Z,57.83
2023-02-13T06:12:26.394Z,57.76
2023-02-13T06:14:52.953Z,55.94
2023-02-13T06:17:19.478Z,56.70
2023-02-13T06:19:46.151Z,57.88
2023-02-13T06:22:12.595Z,56.50
2023-02-13T06:24:39.059Z,55.83
2023-02-13T06:27:05.549Z,55.68
2023-02-13T06:29:32.955Z,55.94
2023-02-13T06:31:59.722Z,55.36
2023-02-13T06:34:26.414Z,55.43
2023-02-13T06:36:52.996Z,55.02
2023-02-13T06:39:19.475Z,56.81
2023-02-13T06:41:45.934Z,55.37
2023-02-13T06:44:12.579Z,54.78
2023-02-13T06:46:39.124Z,54.76
2023-02-13T06:49:05.768Z,56.49
2023-02-13T06:51:32.228Z,55.68
2023-02-13T06:53:58.775Z,54.72
2023-02-13T06:56:26.390Z,54.39
2023-02-13T06:58:52.863Z,54.27
2023-02-13T07:01:19.901Z,53.75
2023-02-13T07:03:48.647Z,53.89
2023-02-13T07:06:21.547Z,53.61
2023-02-13T07:08:48.489Z,53.71
2023-02-13T07:11:23.334Z,53.53
2023-02-13T07:13:50.301Z,53.49
2023-02-13T07:16:17.181Z,53.33
2023-02-13T07:18:43.724Z,53.61
2023-02-13T07:21:10.332Z,53.22
2023-02-13T07:23:36.889Z,53.04
2023-02-13T07:26:03.980Z,53.41
2023-02-13T07:28:30.878Z,53.27
2023-02-13T07:30:57.897Z,53.00
2023-02-13T07:33:24.604Z,53.92
2023-02-13T07:35:52.348Z,53.22
2023-02-13T07:38:19.063Z,53.25
2023-02-13T07:40:45.941Z,52.67
2023-02-13T07:43:13.251Z,52.58
2023-02-13T07:45:39.794Z,53.12
2023-02-13T07:48:06.305Z,52.65
2023-02-13T07:50:33.019Z,52.58
2023-02-13T07:53:01.619Z,52.23
2023-02-13T07:55:29.181Z,52.42
2023-02-13T07:57:56.014Z,52.50
2023-02-13T08:00:23.122Z,52.44
2023-02-13T08:02:50.519Z,52.43
2023-02-13T08:05:17.104Z,51.93
2023-02-13T08:07:43.624Z,52.32
2023-02-13T08:10:31.777Z,52.64
2023-02-13T08:12:58.352Z,52.23
2023-02-13T08:15:24.931Z,53.42
2023-02-13T08:17:51.448Z,54.45
2023-02-13T08:20:18.062Z,55.10
2023-02-13T08:22:44.543Z,54.99
2023-02-13T08:25:11.046Z,53.65
2023-02-13T08:27:38.361Z,52.77
2023-02-13T08:30:06.406Z,51.67
2023-02-13T08:32:44.866Z,51.24
2023-02-13T08:35:18.487Z,50.81
2023-02-13T08:37:46.599Z,51.57
2023-02-13T08:40:14.632Z,50.35
2023-02-13T08:42:41.779Z,51.07
2023-02-13T08:45:10.515Z,51.28
2023-02-13T08:47:37.871Z,49.92
2023-02-13T08:50:04.777Z,48.21
2023-02-13T08:52:31.306Z,47.36
2023-02-13T08:54:57.823Z,47.64
2023-02-13T08:57:24.330Z,47.69
2023-02-13T08:59:50.806Z,46.68
2023-02-13T09:02:17.391Z,45.68
2023-02-13T09:04:43.916Z,44.74
2023-02-13T09:07:10.495Z,45.57
2023-02-13T09:09:37.056Z,45.53
2023-02-13T09:12:03.935Z,46.53
2023-02-13T09:14:30.640Z,46.40
2023-02-13T09:16:57.186Z,45.70
2023-02-13T09:19:23.844Z,44.42
2023-02-13T09:21:50.355Z,45.74
2023-02-13T09:24:16.816Z,44.19
2023-02-13T09:26:43.311Z,43.63
2023-02-13T09:29:09.918Z,42.43
2023-02-13T09:31:36.620Z,42.58
2023-02-13T09:34:03.142Z,42.38
2023-02-13T09:36:29.603Z,41.42
2023-02-13T09:38:57.439Z,40.86
2023-02-13T09:41:26.416Z,40.88
2023-02-13T09:44:02.971Z,40.36
2023-02-13T09:46:33.740Z,39.20
2023-02-13T09:49:03.206Z,38.84
2023-02-13T09:51:29.860Z,34.26
2023-02-13T09:54:02.692Z,30.13
2023-02-13T09:56:35.465Z,25.58
2023-02-13T09:59:06.929Z,20.44
2023-02-13T10:01:43.025Z,18.19
2023-02-13T10:04:47.328Z,16.26
2023-02-13T10:07:23.385Z,12.95
2023-02-13T10:10:18.085Z,11.62
2023-02-13T10:12:50.479Z,12.22
2023-02-13T10:15:41.922Z,12.82
2023-02-13T10:18:18.769Z,11.33
2023-02-13T10:20:48.754Z,9.85
2023-02-13T10:23:46.378Z,9.56
2023-02-13T10:26:24.308Z,9.47
2023-02-13T10:29:19.252Z,8.97
2023-02-13T10:31:47.090Z,10.96
2023-02-13T10:34:25.516Z,9.89
2023-02-13T10:36:52.194Z,9.90
2023-02-13T10:39:28.762Z,8.63
2023-02-13T10:42:17.281Z,7.79
2023-02-13T10:44:55.852Z,9.81
2023-02-13T10:47:45.927Z,9.39
2023-02-13T10:50:27.617Z,9.04
2023-02-13T10:53:06.493Z,8.54
2023-02-13T10:55:48.208Z,8.06
2023-02-13T10:58:30.391Z,7.98
2023-02-13T11:01:09.796Z,7.78
2023-02-13T11:03:36.599Z,7.34
2023-02-13T11:06:07.132Z,7.49
2023-02-13T11:08:40.621Z,7.26
2023-02-13T11:11:33.838Z,7.11
2023-02-13T11:14:23.913Z,6.50
2023-02-13T11:17:00.112Z,7.08
2023-02-13T11:19:33.437Z,7.02
2023-02-13T11:22:06.472Z,7.25
2023-02-13T11:24:33.655Z,7.28
2023-02-13T11:27:08.945Z,9.92
2023-02-13T11:29:37.355Z,9.26
2023-02-13T11:32:17.524Z,10.08
2023-02-13T11:34:45.408Z,9.93
2023-02-13T11:37:19.443Z,8.67
2023-02-13T11:39:51.113Z,7.93
2023-02-13T11:42:36.471Z,7.59
2023-02-13T11:45:23.843Z,7.00
2023-02-13T11:47:50.603Z,8.08
2023-02-13T11:50:37.726Z,6.81
2023-02-13T11:53:25.733Z,7.08
2023-02-13T11:56:21.762Z,8.19
2023-02-13T11:59:01.372Z,8.33
2023-02-13T12:01:29.132Z,7.77
2023-02-13T12:04:19.068Z,9.63
2023-02-13T12:06:59.984Z,8.33
2023-02-13T12:09:29.130Z,7.70
2023-02-13T12:12:02.656Z,7.72
2023-02-13T12:14:40.755Z,7.40
2023-02-13T12:17:14.390Z,8.27
2023-02-13T12:19:49.572Z,7.55
2023-02-13T12:22:37.557Z,7.38
2023-02-13T12:25:33.502Z,7.64
2023-02-13T12:28:11.953Z,10.45
2023-02-13T12:30:47.673Z,9.24
2023-02-13T12:33:40.300Z,11.38
2023-02-13T12:36:31.122Z,11.61
2023-02-13T12:39:18.587Z,13.58
2023-02-13T12:42:09.496Z,15.26
2023-02-13T12:45:00.465Z,20.71
2023-02-13T12:47:30.732Z,23.19
2023-02-13T12:50:09.340Z,27.25
2023-02-13T12:52:56.164Z,29.77
2023-02-13T12:56:01.219Z,31.95
2023-02-13T12:58:46.417Z,34.60
2023-02-13T13:01:25.068Z,36.60
2023-02-13T13:04:15.228Z,38.11
2023-02-13T13:06:42.040Z,38.57
2023-02-13T13:09:40.026Z,39.78
2023-02-13T13:12:12.566Z,40.08
2023-02-13T13:15:00.629Z,39.35
2023-02-13T13:17:30.180Z,39.53
2023-02-13T13:20:08.896Z,39.38
2023-02-13T13:22:48.053Z,39.50
2023-02-13T13:25:20.731Z,41.13
2023-02-13T13:27:50.536Z,40.23
2023-02-13T13:30:29.572Z,40.61
2023-02-13T13:33:19.445Z,40.15
2023-02-13T13:35:58.467Z,40.44
2023-02-13T13:38:43.637Z,41.73
2023-02-13T13:41:13.143Z,41.29
2023-02-13T13:43:58.761Z,40.91
2023-02-13T13:46:35.040Z,40.33
2023-02-13T13:49:21.569Z,40.33
2023-02-13T13:51:48.072Z,40.01
2023-02-13T13:54:14.520Z,40.00
2023-02-13T13:56:53.408Z,42.04
2023-02-13T13:59:51.663Z,41.60
2023-02-13T14:02:18.473Z,43.03
2023-02-13T14:05:04.014Z,41.82
2023-02-13T14:07:35.672Z,41.58
2023-02-13T14:10:02.657Z,40.34
2023-02-13T14:12:29.166Z,40.84
2023-02-13T14:14:56.980Z,41.01
2023-02-13T14:17:45.330Z,41.81
2023-02-13T14:20:33.120Z,41.33
2023-02-13T14:23:17.788Z,41.46
2023-02-13T14:25:44.374Z,42.50
2023-02-13T14:28:22.366Z,40.70
2023-02-13T14:30:51.286Z,41.00
2023-02-13T14:33:25.446Z,41.32
2023-02-13T14:36:04.763Z,40.48
2023-02-13T14:38:31.544Z,39.87
2023-02-13T14:40:59.097Z,40.90
2023-02-13T14:43:39.241Z,41.90
2023-02-13T14:46:33.367Z,42.00
2023-02-13T14:49:07.395Z,41.77
2023-02-13T14:51:38.900Z,41.77
2023-02-13T14:54:13.659Z,42.37
2023-02-13T14:56:40.244Z,41.50
2023-02-13T14:59:13.610Z,41.21
2023-02-13T15:01:45.227Z,41.50
2023-02-13T15:04:19.383Z,40.76
2023-02-13T15:06:46.827Z,40.65
2023-02-13T15:09:22.230Z,41.78
2023-02-13T15:11:49.361Z,41.62
2023-02-13T15:14:15.769Z,41.79
2023-02-13T15:16:42.619Z,43.44
2023-02-13T15:19:15.152Z,43.70
2023-02-13T15:21:48.785Z,43.87
2023-02-13T15:24:15.537Z,43.31
2023-02-13T15:26:42.162Z,42.61
2023-02-13T15:29:25.911Z,42.45
2023-02-13T15:31:53.476Z,42.68
2023-02-13T15:34:35.582Z,43.16
2023-02-13T15:37:03.011Z,43.81
2023-02-13T15:39:31.421Z,45.51
2023-02-13T15:42:02.597Z,45.95
2023-02-13T15:44:30.681Z,45.68
2023-02-13T15:47:08.382Z,46.90
2023-02-13T15:49:39.040Z,47.01
2023-02-13T15:52:15.138Z,47.09
2023-02-13T15:54:55.130Z,46.91
2023-02-13T15:57:23.309Z,46.89
2023-02-13T15:59:50.351Z,46.85
2023-02-13T16:02:46.199Z,47.36
2023-02-13T16:05:14.314Z,46.96
2023-02-13T16:07:54.911Z,48.06
2023-02-13T16:10:32.604Z,47.65
2023-02-13T16:13:01.813Z,48.13
2023-02-13T16:15:30.357Z,48.45
2023-02-13T16:17:57.138Z,47.89
2023-02-13T16:20:26.651Z,47.64
2023-02-13T16:22:59.426Z,48.13
2023-02-13T16:25:29.069Z,48.25
2023-02-13T16:27:57.888Z,48.19
2023-02-13T16:30:34.008Z,48.07
2023-02-13T16:33:13.037Z,47.98
2023-02-13T16:35:55.046Z,47.87
2023-02-13T16:38:32.381Z,48.15
2023-02-13T16:41:04.255Z,47.90
2023-02-13T16:43:37.988Z,48.29
2023-02-13T16:46:19.761Z,48.22
2023-02-13T16:49:01.156Z,48.46
2023-02-13T16:51:43.175Z,48.47
2023-02-13T16:54:25.064Z,48.75
2023-02-13T16:57:13.306Z,48.92
2023-02-13T16:59:49.336Z,48.44
2023-02-13T17:02:15.921Z,48.65
2023-02-13T17:04:44.464Z,48.83
2023-02-13T17:07:32.121Z,48.91
2023-02-13T17:10:05.866Z,48.64
2023-02-13T17:12:36.862Z,48.88
2023-02-13T17:15:04.206Z,48.99
2023-02-13T17:17:32.267Z,48.95
2023-02-13T17:19:59.590Z,48.98
2023-02-13T17:22:30.202Z,49.12
2023-02-13T17:24:58.004Z,49.11
2023-02-13T17:27:24.482Z,48.96
2023-02-13T17:29:51.033Z,49.13
2023-02-13T17:32:19.899Z,49.49
2023-02-13T17:34:46.705Z,49.50
2023-02-13T17:37:27.174Z,49.77
2023-02-13T17:39:54.372Z,49.81
2023-02-13T17:42:24.704Z,49.69
2023-02-13T17:44:51.314Z,49.80
2023-02-13T17:47:18.387Z,50.07
2023-02-13T17:49:45.092Z,50.35
2023-02-13T17:52:15.858Z,50.28
2023-02-13T17:54:43.953Z,50.11
2023-02-13T17:57:11.754Z,50.23
2023-02-13T17:59:38.287Z,50.57
2023-02-13T18:02:11.616Z,50.56
2023-02-13T18:04:38.130Z,50.80
2023-02-13T18:07:04.939Z,50.73
2023-02-13T18:09:31.521Z,50.67
2023-02-13T18:12:05.309Z,50.77
2023-02-13T18:14:32.849Z,50.77
2023-02-13T18:16:59.737Z,50.77
2023-02-13T18:19:27.174Z,50.82
2023-02-13T18:21:53.596Z,50.52
2023-02-13T18:24:20.124Z,50.74
2023-02-13T18:26:46.781Z,50.74
2023-02-13T18:29:13.313Z,51.32
2023-02-13T18:31:40.593Z,51.25
2023-02-13T18:34:07.313Z,51.67
2023-02-13T18:36:33.865Z,51.59
2023-02-13T18:39:00.463Z,51.42
2023-02-13T18:41:26.950Z,51.69
2023-02-13T18:43:57.243Z,51.88
2023-02-13T18:46:24.110Z,51.56
2023-02-13T18:48:50.665Z,51.41
2023-02-13T18:51:17.117Z,51.26
2023-02-13T18:53:43.598Z,51.48
2023-02-13T18:56:11.550Z,51.66
2023-02-13T18:58:38.318Z,51.92
2023-02-13T19:01:09.856Z,51.91
2023-02-13T19:03:40.125Z,52.34
2023-02-13T19:06:09.072Z,52.46
2023-02-13T19:08:36.164Z,52.18
2023-02-13T19:11:07.543Z,51.96
2023-02-13T19:13:34.065Z,52.05
2023-02-13T19:16:08.269Z,52.13
2023-02-13T19:18:42.834Z,51.91
2023-02-13T19:21:09.663Z,51.98
2023-02-13T19:23:36.919Z,52.51
2023-02-13T19:26:07.749Z,52.61
2023-02-13T19:28:34.631Z,52.48
2023-02-13T19:31:03.245Z,52.34
2023-02-13T19:33:30.128Z,52.19
2023-02-13T19:35:58.218Z,52.04
2023-02-13T19:38:24.756Z,52.23
2023-02-13T19:40:51.896Z,52.52
2023-02-13T19:43:18.353Z,52.13
2023-02-13T19:45:44.876Z,52.16
2023-02-13T19:48:11.363Z,52.35
2023-02-13T19:50:39.082Z,52.52
2023-02-13T19:53:07.556Z,52.43
2023-02-13T19:55:34.297Z,51.97
2023-02-13T19:58:00.762Z,52.39
2023-02-13T20:00:27.379Z,51.94
2023-02-13T20:02:55.084Z,52.14
2023-02-13T20:05:21.669Z,51.97
2023-02-13T20:07:48.165Z,52.16
2023-02-13T20:10:14.935Z,52.13
2023-02-13T20:12:41.447Z,51.96
2023-02-13T20:15:08.279Z,51.68
2023-02-13T20:17:38.071Z,52.08
2023-02-13T20:20:05.084Z,52.01
2023-02-13T20:22:31.667Z,52.24
2023-02-13T20:24:58.185Z,52.35
2023-02-13T20:27:24.676Z,52.46
2023-02-13T20:29:53.327Z,52.44
2023-02-13T20:32:25.593Z,52.40
2023-02-13T20:34:59.607Z,52.63
2023-02-13T20:37:26.443Z,52.50
2023-02-13T20:39:52.971Z,52.37
2023-02-13T20:42:19.674Z,52.16
2023-02-13T20:44:46.758Z,52.06
2023-02-13T20:47:13.298Z,52.10
2023-02-13T20:49:39.815Z,52.22
2023-02-13T20:52:06.323Z,52.49
2023-02-13T20:54:32.942Z,52.44
2023-02-13T20:56:59.567Z,52.26
2023-02-13T20:59:26.104Z,52.49
2023-02-13T21:01:52.579Z,52.75
2023-02-13T21:04:20.672Z,52.39
2023-02-13T21:06:48.334Z,52.75
2023-02-13T21:09:15.427Z,52.63
2023-02-13T21:11:43.673Z,52.96
2023-02-13T21:14:11.966Z,52.65
2023-02-13T21:16:40.009Z,52.99
2023-02-13T21:19:09.471Z,52.95
2023-02-13T21:21:37.247Z,52.76
2023-02-13T21:24:08.020Z,53.39
2023-02-13T21:26:35.198Z,53.64
2023-02-13T21:29:02.090Z,54.55
2023-02-13T21:31:32.111Z,54.53
2023-02-13T21:34:04.613Z,54.16
2023-02-13T21:36:32.515Z,54.55
2023-02-13T21:38:59.912Z,54.27
2023-02-13T21:41:26.508Z,53.84
2023-02-13T21:43:53.293Z,54.01
2023-02-13T21:46:25.163Z,53.75
2023-02-13T21:48:54.142Z,53.58
2023-02-13T21:51:21.409Z,53.42
2023-02-13T21:53:48.816Z,53.69
2023-02-13T21:56:17.734Z,53.21
2023-02-13T21:58:45.076Z,53.01
2023-02-13T22:01:32.079Z,53.08
2023-02-13T22:04:01.270Z,53.09
2023-02-13T22:06:29.694Z,53.00
2023-02-13T22:09:11.253Z,53.31
2023-02-13T22:11:38.619Z,52.87
2023-02-13T22:14:07.648Z,53.47
2023-02-13T22:16:36.556Z,53.54
2023-02-13T22:19:04.247Z,53.81
2023-02-13T22:21:31.891Z,53.89
2023-02-13T22:23:58.728Z,53.78
2023-02-13T22:26:29.640Z,53.31
2023-02-13T22:29:00.132Z,53.03
2023-02-13T22:31:26.790Z,53.16
2023-02-13T22:34:03.264Z,52.83
2023-02-13T22:36:35.082Z,53.22
2023-02-13T22:39:01.592Z,53.25
2023-02-13T22:41:28.484Z,52.60
2023-02-13T22:43:55.196Z,52.82
2023-02-13T22:46:26.906Z,52.93
2023-02-13T22:48:53.923Z,52.93
2023-02-13T22:51:26.817Z,53.53
2023-02-13T22:53:54.993Z,53.39
2023-02-13T22:56:22.553Z,53.65
2023-02-13T22:58:49.272Z,53.41
2023-02-13T23:01:19.646Z,53.12
2023-02-13T23:03:46.617Z,52.67
2023-02-13T23:06:14.150Z,53.38
2023-02-13T23:08:41.409Z,53.04
2023-02-13T23:11:32.231Z,52.87
2023-02-13T23:13:59.041Z,52.62
2023-02-13T23:16:26.162Z,52.55
2023-02-13T23:18:56.929Z,52.61
2023-02-13T23:21:24.753Z,52.89
2023-02-13T23:23:51.386Z,52.91
2023-02-13T23:26:18.387Z,53.34
2023-02-13T23:28:44.965Z,52.76
2023-02-13T23:31:11.626Z,52.52
2023-02-13T23:33:38.142Z,52.50
2023-02-13T23:36:05.016Z,52.32
2023-02-13T23:38:31.496Z,52.24
2023-02-13T23:41:06.374Z,52.02
2023-02-13T23:43:33.037Z,52.84
2023-02-13T23:45:59.573Z,53.09
2023-02-13T23:48:26.102Z,53.46
2023-02-13T23:50:53.182Z,53.59
2023-02-13T23:53:19.914Z,55.00
2023-02-13T23:55:46.396Z,54.89
2023-02-13T23:58:12.864Z,55.34
